createdAt,value
2022-09-11T00:00:09.401Z,0.00
2022-09-11T00:01:09.408Z,0.00
2022-09-11T00:02:09.376Z,0.00
2022-09-11T00:03:09.376Z,0.00
2022-09-11T00:04:09.371Z,0.00
2022-09-11T00:05:09.339Z,0.00
2022-09-11T00:06:09.338Z,0.00
2022-09-11T00:07:09.365Z,0.00
2022-09-11T00:08:09.286Z,0.00
2022-09-11T00:09:09.338Z,0.00
2022-09-11T00:10:09.314Z,0.00
2022-09-11T00:11:09.279Z,0.00
2022-09-11T00:12:09.254Z,0.00
2022-09-11T00:13:09.233Z,0.00
2022-09-11T00:14:09.221Z,0.00
2022-09-11T00:15:09.690Z,0.00
2022-09-11T00:16:09.225Z,0.00
2022-09-11T00:17:09.237Z,0.00
2022-09-11T00:18:09.173Z,0.00
2022-09-11T00:19:09.162Z,0.00
2022-09-11T00:20:09.168Z,0.00
2022-09-11T00:21:09.163Z,0.00
2022-09-11T00:22:09.166Z,0.00
2022-09-11T00:23:09.152Z,0.00
2022-09-11T00:24:09.113Z,0.00
2022-09-11T00:25:09.096Z,0.00
2022-09-11T00:26:09.083Z,0.00
2022-09-11T00:27:09.121Z,0.00
2022-09-11T00:28:09.094Z,0.00
2022-09-11T00:29:09.069Z,0.00
2022-09-11T00:30:09.038Z,0.00
2022-09-11T00:31:09.056Z,0.00
2022-09-11T00:32:09.052Z,0.00
2022-09-11T00:33:09.039Z,0.00
2022-09-11T00:34:09.006Z,0.00
2022-09-11T00:35:09.010Z,0.00
2022-09-11T00:36:09.052Z,0.00
2022-09-11T00:37:08.960Z,0.00
2022-09-11T00:38:08.964Z,0.00
2022-09-11T00:39:08.975Z,0.00
2022-09-11T00:40:08.987Z,0.00
2022-09-11T00:41:08.915Z,0.00
2022-09-11T00:42:08.916Z,0.00
2022-09-11T00:43:08.898Z,0.00
2022-09-11T00:44:08.917Z,0.00
2022-09-11T00:45:08.905Z,0.00
2022-09-11T00:46:08.966Z,0.00
2022-09-11T00:47:08.847Z,0.00
2022-09-11T00:48:08.852Z,0.00
2022-09-11T00:49:08.864Z,0.00
2022-09-11T00:50:08.824Z,0.00
2022-09-11T00:51:08.808Z,0.00
2022-09-11T00:52:08.848Z,0.00
2022-09-11T00:53:08.777Z,0.00
2022-09-11T00:54:08.863Z,0.00
2022-09-11T00:55:08.773Z,0.00
2022-09-11T00:56:08.768Z,0.00
2022-09-11T00:57:08.750Z,0.00
2022-09-11T00:58:08.719Z,0.00
2022-09-11T00:59:08.728Z,0.00
2022-09-11T01:00:08.737Z,0.00
2022-09-11T01:01:08.767Z,0.00
2022-09-11T01:02:08.726Z,0.00
2022-09-11T01:03:08.665Z,0.00
2022-09-11T01:04:08.691Z,0.00
2022-09-11T01:05:08.643Z,0.00
2022-09-11T01:06:08.652Z,0.00
2022-09-11T01:07:08.632Z,0.00
2022-09-11T01:08:08.642Z,0.00
2022-09-11T01:09:08.597Z,0.00
2022-09-11T01:10:08.601Z,0.00
2022-09-11T01:11:08.574Z,0.00
2022-09-11T01:12:08.586Z,0.00
2022-09-11T01:13:08.587Z,0.00
2022-09-11T01:14:08.559Z,0.00
2022-09-11T01:15:08.532Z,0.00
2022-09-11T01:16:08.572Z,0.00
2022-09-11T01:17:08.513Z,0.00
2022-09-11T01:18:08.533Z,0.00
2022-09-11T01:19:08.493Z,0.00
2022-09-11T01:20:08.470Z,0.00
2022-09-11T01:21:08.483Z,0.00
2022-09-11T01:22:08.449Z,0.00
2022-09-11T01:23:08.454Z,0.00
2022-09-11T01:24:08.463Z,0.00
2022-09-11T01:25:08.448Z,0.00
2022-09-11T01:26:08.456Z,0.00
2022-09-11T01:27:08.397Z,0.00
2022-09-11T01:28:08.385Z,0.00
2022-09-11T01:29:08.391Z,0.00
2022-09-11T01:30:11.629Z,0.00
2022-09-11T01:31:08.433Z,0.00
2022-09-11T01:32:08.335Z,0.00
2022-09-11T01:33:08.325Z,0.00
2022-09-11T01:34:08.351Z,0.00
2022-09-11T01:35:08.305Z,0.00
2022-09-11T01:36:08.319Z,0.00
2022-09-11T01:37:09.158Z,0.00
2022-09-11T01:38:08.266Z,0.00
2022-09-11T01:39:08.260Z,0.00
2022-09-11T01:40:08.363Z,0.00
2022-09-11T01:41:08.252Z,0.00
2022-09-11T01:42:08.254Z,0.00
2022-09-11T01:43:08.270Z,0.00
2022-09-11T01:44:08.284Z,0.00
2022-09-11T01:45:08.196Z,0.00
2022-09-11T01:46:08.180Z,0.00
2022-09-11T01:47:08.196Z,0.00
2022-09-11T01:48:08.198Z,0.00
2022-09-11T01:49:08.205Z,0.00
2022-09-11T01:50:08.169Z,0.00
2022-09-11T01:51:08.133Z,0.00
2022-09-11T01:52:08.125Z,0.00
2022-09-11T01:53:08.129Z,0.00
2022-09-11T01:54:08.087Z,0.00
2022-09-11T01:55:08.078Z,0.00
2022-09-11T01:56:08.112Z,0.00
2022-09-11T01:57:08.093Z,0.00
2022-09-11T01:58:08.067Z,0.00
2022-09-11T01:59:08.070Z,0.00
2022-09-11T02:00:08.074Z,0.00
2022-09-11T02:01:08.071Z,0.00
2022-09-11T02:02:08.076Z,0.00
2022-09-11T02:03:08.007Z,0.00
2022-09-11T02:04:07.980Z,0.00
2022-09-11T02:05:07.965Z,0.00
2022-09-11T02:06:07.995Z,0.00
2022-09-11T02:07:07.942Z,0.00
2022-09-11T02:08:07.964Z,0.00
2022-09-11T02:09:07.950Z,0.00
2022-09-11T02:10:07.951Z,0.00
2022-09-11T02:11:07.950Z,0.00
2022-09-11T02:12:07.902Z,0.00
2022-09-11T02:13:07.875Z,0.00
2022-09-11T02:14:07.901Z,0.00
2022-09-11T02:15:07.883Z,0.00
2022-09-11T02:16:07.915Z,0.00
2022-09-11T02:17:07.885Z,0.00
2022-09-11T02:18:07.818Z,0.00
2022-09-11T02:19:07.815Z,0.00
2022-09-11T02:20:07.846Z,0.00
2022-09-11T02:21:07.810Z,0.00
2022-09-11T02:22:07.772Z,0.00
2022-09-11T02:23:15.667Z,0.00
2022-09-11T02:24:07.761Z,0.00
2022-09-11T02:25:07.795Z,0.00
2022-09-11T02:26:07.751Z,0.00
2022-09-11T02:27:07.754Z,0.00
2022-09-11T02:28:07.728Z,0.00
2022-09-11T02:29:07.723Z,0.00
2022-09-11T02:30:07.716Z,0.00
2022-09-11T02:31:07.772Z,0.00
2022-09-11T02:32:07.692Z,0.00
2022-09-11T02:33:07.697Z,0.00
2022-09-11T02:34:07.642Z,0.00
2022-09-11T02:35:07.643Z,0.00
2022-09-11T02:36:07.643Z,0.00
2022-09-11T02:37:07.660Z,0.00
2022-09-11T02:38:07.640Z,0.00
2022-09-11T02:39:07.589Z,0.00
2022-09-11T02:40:07.615Z,0.00
2022-09-11T02:41:07.572Z,0.00
2022-09-11T02:42:07.587Z,0.00
2022-09-11T02:43:07.569Z,0.00
2022-09-11T02:44:07.570Z,0.00
2022-09-11T02:45:07.525Z,0.00
2022-09-11T02:46:07.503Z,0.00
2022-09-11T02:47:07.522Z,0.00
2022-09-11T02:48:07.517Z,0.00
2022-09-11T02:49:07.491Z,0.00
2022-09-11T02:50:07.519Z,0.00
2022-09-11T02:51:07.492Z,0.00
2022-09-11T02:52:07.439Z,0.00
2022-09-11T02:53:07.459Z,0.00
2022-09-11T02:54:07.429Z,0.00
2022-09-11T02:55:07.436Z,0.00
2022-09-11T02:56:07.391Z,0.00
2022-09-11T02:57:07.454Z,0.00
2022-09-11T02:58:07.381Z,0.00
2022-09-11T02:59:07.362Z,0.00
2022-09-11T03:00:07.386Z,0.00
2022-09-11T03:01:07.401Z,0.00
2022-09-11T03:02:07.401Z,0.00
2022-09-11T03:03:07.320Z,0.00
2022-09-11T03:04:07.347Z,0.00
2022-09-11T03:05:07.304Z,0.00
2022-09-11T03:06:07.312Z,0.00
2022-09-11T03:07:07.304Z,0.00
2022-09-11T03:08:07.258Z,0.00
2022-09-11T03:09:07.256Z,0.00
2022-09-11T03:10:07.267Z,0.00
2022-09-11T03:11:07.239Z,0.00
2022-09-11T03:12:07.238Z,0.00
2022-09-11T03:13:07.206Z,0.00
2022-09-11T03:14:07.193Z,0.00
2022-09-11T03:15:07.258Z,0.00
2022-09-11T03:16:07.292Z,0.00
2022-09-11T03:17:07.178Z,0.00
2022-09-11T03:18:07.188Z,0.00
2022-09-11T03:19:07.139Z,0.00
2022-09-11T03:20:07.125Z,0.00
2022-09-11T03:21:07.118Z,0.00
2022-09-11T03:22:07.151Z,0.00
2022-09-11T03:23:07.118Z,0.00
2022-09-11T03:24:07.087Z,0.00
2022-09-11T03:25:07.072Z,0.00
2022-09-11T03:26:07.063Z,0.00
2022-09-11T03:27:07.073Z,0.00
2022-09-11T03:28:07.079Z,0.00
2022-09-11T03:29:07.054Z,0.00
2022-09-11T03:30:07.062Z,0.00
2022-09-11T03:31:07.069Z,0.00
2022-09-11T03:32:07.020Z,0.00
2022-09-11T03:33:06.982Z,0.00
2022-09-11T03:34:06.985Z,0.00
2022-09-11T03:35:07.001Z,0.00
2022-09-11T03:36:06.948Z,0.00
2022-09-11T03:37:06.938Z,0.00
2022-09-11T03:38:06.935Z,0.00
2022-09-11T03:39:06.923Z,0.00
2022-09-11T03:40:06.966Z,0.00
2022-09-11T03:41:06.933Z,0.00
2022-09-11T03:42:06.888Z,0.00
2022-09-11T03:43:06.878Z,0.00
2022-09-11T03:44:06.877Z,0.00
2022-09-11T03:45:06.859Z,0.00
2022-09-11T03:46:06.897Z,0.00
2022-09-11T03:47:06.860Z,0.00
2022-09-11T03:48:06.835Z,0.00
2022-09-11T03:49:06.807Z,0.00
2022-09-11T03:50:06.815Z,0.00
2022-09-11T03:51:06.795Z,0.00
2022-09-11T03:52:06.805Z,0.00
2022-09-11T03:53:06.763Z,0.00
2022-09-11T03:54:06.756Z,0.00
2022-09-11T03:55:06.749Z,0.00
2022-09-11T03:56:06.728Z,0.00
2022-09-11T03:57:06.760Z,0.00
2022-09-11T03:58:06.735Z,0.00
2022-09-11T03:59:06.739Z,0.00
2022-09-11T04:00:06.694Z,0.00
2022-09-11T04:01:06.729Z,0.00
2022-09-11T04:02:06.752Z,0.00
2022-09-11T04:03:06.702Z,0.00
2022-09-11T04:04:06.702Z,0.00
2022-09-11T04:05:06.629Z,0.00
2022-09-11T04:06:06.685Z,0.00
2022-09-11T04:07:06.693Z,0.00
2022-09-11T04:08:06.638Z,0.00
2022-09-11T04:09:06.602Z,0.00
2022-09-11T04:10:06.572Z,0.00
2022-09-11T04:11:06.562Z,0.00
2022-09-11T04:12:06.559Z,0.00
2022-09-11T04:13:06.566Z,0.00
2022-09-11T04:14:06.544Z,0.00
2022-09-11T04:15:06.547Z,0.00
2022-09-11T04:16:06.551Z,0.00
2022-09-11T04:17:06.496Z,0.00
2022-09-11T04:18:06.527Z,0.00
2022-09-11T04:19:06.512Z,0.00
2022-09-11T04:20:06.502Z,0.00
2022-09-11T04:21:06.479Z,0.00
2022-09-11T04:22:06.439Z,0.00
2022-09-11T04:23:06.495Z,0.00
2022-09-11T04:24:06.435Z,0.00
2022-09-11T04:25:06.428Z,0.00
2022-09-11T04:26:06.415Z,0.00
2022-09-11T04:27:06.383Z,0.00
2022-09-11T04:28:06.375Z,0.00
2022-09-11T04:29:06.397Z,0.00
2022-09-11T04:30:06.353Z,0.00
2022-09-11T04:31:06.362Z,4.00
2022-09-11T04:32:06.368Z,4.00
2022-09-11T04:33:06.317Z,4.00
2022-09-11T04:34:06.308Z,4.00
2022-09-11T04:35:06.320Z,4.00
2022-09-11T04:36:06.330Z,4.00
2022-09-11T04:37:06.296Z,4.00
2022-09-11T04:38:06.293Z,4.00
2022-09-11T04:39:06.250Z,8.00
2022-09-11T04:40:06.351Z,8.00
2022-09-11T04:41:06.258Z,8.00
2022-09-11T04:42:06.222Z,8.00
2022-09-11T04:43:06.243Z,8.00
2022-09-11T04:44:06.198Z,8.00
2022-09-11T04:45:06.184Z,8.00
2022-09-11T04:46:06.272Z,12.00
2022-09-11T04:47:06.165Z,8.00
2022-09-11T04:48:06.163Z,8.00
2022-09-11T04:49:06.182Z,8.00
2022-09-11T04:50:06.132Z,12.00
2022-09-11T04:51:06.143Z,12.00
2022-09-11T04:52:06.154Z,12.00
2022-09-11T04:53:06.121Z,12.00
2022-09-11T04:54:06.101Z,20.00
2022-09-11T04:55:06.112Z,24.00
2022-09-11T04:56:06.109Z,20.00
2022-09-11T04:57:06.050Z,24.00
2022-09-11T04:58:06.056Z,28.00
2022-09-11T04:59:06.063Z,24.00
2022-09-11T05:00:06.042Z,24.00
2022-09-11T05:01:06.075Z,28.00
2022-09-11T05:02:06.040Z,24.00
2022-09-11T05:03:05.993Z,28.00
2022-09-11T05:04:05.995Z,28.00
2022-09-11T05:05:06.003Z,32.00
2022-09-11T05:06:05.977Z,28.00
2022-09-11T05:07:05.975Z,32.00
2022-09-11T05:08:05.951Z,28.00
2022-09-11T05:09:05.925Z,28.00
2022-09-11T05:10:05.935Z,20.00
2022-09-11T05:11:05.940Z,16.00
2022-09-11T05:12:05.915Z,16.00
2022-09-11T05:13:05.873Z,20.00
2022-09-11T05:14:05.870Z,16.00
2022-09-11T05:15:05.867Z,16.00
2022-09-11T05:16:05.908Z,16.00
2022-09-11T05:17:05.850Z,20.00
2022-09-11T05:18:05.851Z,20.00
2022-09-11T05:19:05.806Z,24.00
2022-09-11T05:20:11.177Z,36.00
2022-09-11T05:21:06.829Z,40.00
2022-09-11T05:22:05.920Z,40.00
2022-09-11T05:23:05.787Z,56.00
2022-09-11T05:24:05.769Z,64.00
2022-09-11T05:25:05.741Z,84.00
2022-09-11T05:26:05.736Z,100.00
2022-09-11T05:27:05.744Z,128.00
2022-09-11T05:28:05.723Z,116.00
2022-09-11T05:29:05.727Z,136.00
2022-09-11T05:30:05.686Z,124.00
2022-09-11T05:31:05.674Z,120.00
2022-09-11T05:32:05.674Z,112.00
2022-09-11T05:33:05.658Z,84.00
2022-09-11T05:34:13.788Z,80.00
2022-09-11T05:35:05.657Z,80.00
2022-09-11T05:36:05.619Z,76.00
2022-09-11T05:37:05.614Z,76.00
2022-09-11T05:38:05.622Z,72.00
2022-09-11T05:39:05.594Z,80.00
2022-09-11T05:40:05.694Z,80.00
2022-09-11T05:41:05.598Z,100.00
2022-09-11T05:42:05.555Z,96.00
2022-09-11T05:43:05.547Z,108.00
2022-09-11T05:44:05.557Z,156.00
2022-09-11T05:45:05.544Z,120.00
2022-09-11T05:46:05.595Z,120.00
2022-09-11T05:47:05.531Z,108.00
2022-09-11T05:48:05.487Z,92.00
2022-09-11T05:49:05.498Z,100.00
2022-09-11T05:50:05.472Z,100.00
2022-09-11T05:51:05.465Z,92.00
2022-09-11T05:52:05.461Z,88.00
2022-09-11T05:53:05.440Z,100.00
2022-09-11T05:54:05.423Z,104.00
2022-09-11T05:55:05.431Z,108.00
2022-09-11T05:56:05.415Z,68.00
2022-09-11T05:57:07.748Z,68.00
2022-09-11T05:58:05.408Z,72.00
2022-09-11T05:59:05.362Z,80.00
2022-09-11T06:00:05.378Z,84.00
2022-09-11T06:01:05.849Z,92.00
2022-09-11T06:02:05.411Z,96.00
2022-09-11T06:03:05.337Z,84.00
2022-09-11T06:04:05.309Z,88.00
2022-09-11T06:05:05.297Z,72.00
2022-09-11T06:06:05.315Z,80.00
2022-09-11T06:07:05.304Z,80.00
2022-09-11T06:08:05.277Z,88.00
2022-09-11T06:09:05.273Z,68.00
2022-09-11T06:10:05.288Z,68.00
2022-09-11T06:11:05.234Z,80.00
2022-09-11T06:12:05.238Z,84.00
2022-09-11T06:13:05.236Z,88.00
2022-09-11T06:14:05.218Z,92.00
2022-09-11T06:15:05.212Z,96.00
2022-09-11T06:16:05.175Z,100.00
2022-09-11T06:17:05.180Z,108.00
2022-09-11T06:18:05.284Z,108.00
2022-09-11T06:19:05.152Z,104.00
2022-09-11T06:20:05.157Z,112.00
2022-09-11T06:21:05.118Z,112.00
2022-09-11T06:22:05.160Z,104.00
2022-09-11T06:23:09.161Z,96.00
2022-09-11T06:24:05.113Z,100.00
2022-09-11T06:25:05.084Z,92.00
2022-09-11T06:26:05.100Z,88.00
2022-09-11T06:27:05.096Z,112.00
2022-09-11T06:28:05.060Z,132.00
2022-09-11T06:29:05.034Z,120.00
2022-09-11T06:30:05.050Z,96.00
2022-09-11T06:31:05.048Z,152.00
2022-09-11T06:32:05.035Z,212.00
2022-09-11T06:33:04.986Z,140.00
2022-09-11T06:34:04.975Z,108.00
2022-09-11T06:35:04.966Z,136.00
2022-09-11T06:36:04.982Z,168.00
2022-09-11T06:37:04.962Z,196.00
2022-09-11T06:38:04.953Z,176.00
2022-09-11T06:39:04.921Z,128.00
2022-09-11T06:40:04.937Z,140.00
2022-09-11T06:41:04.934Z,88.00
2022-09-11T06:42:04.897Z,80.00
2022-09-11T06:43:04.899Z,96.00
2022-09-11T06:44:04.920Z,84.00
2022-09-11T06:45:04.858Z,92.00
2022-09-11T06:46:05.815Z,96.00
2022-09-11T06:47:04.860Z,156.00
2022-09-11T06:48:04.838Z,212.00
2022-09-11T06:49:04.842Z,304.00
2022-09-11T06:50:04.837Z,328.00
2022-09-11T06:51:04.786Z,356.00
2022-09-11T06:52:04.784Z,336.00
2022-09-11T06:53:04.797Z,264.00
2022-09-11T06:54:04.774Z,252.00
2022-09-11T06:55:04.770Z,232.00
2022-09-11T06:56:04.774Z,300.00
2022-09-11T06:57:04.739Z,256.00
2022-09-11T06:58:04.710Z,268.00
2022-09-11T06:59:04.745Z,256.00
2022-09-11T07:00:04.736Z,356.00
2022-09-11T07:01:04.890Z,344.00
2022-09-11T07:02:04.939Z,380.00
2022-09-11T07:03:04.672Z,604.00
2022-09-11T07:04:04.645Z,360.00
2022-09-11T07:05:04.650Z,292.00
2022-09-11T07:06:04.645Z,284.00
2022-09-11T07:07:04.607Z,176.00
2022-09-11T07:08:04.658Z,164.00
2022-09-11T07:09:04.586Z,232.00
2022-09-11T07:10:04.614Z,256.00
2022-09-11T07:11:04.580Z,268.00
2022-09-11T07:12:04.595Z,252.00
2022-09-11T07:13:04.540Z,208.00
2022-09-11T07:14:04.535Z,204.00
2022-09-11T07:15:04.531Z,212.00
2022-09-11T07:16:04.533Z,176.00
2022-09-11T07:17:04.520Z,176.00
2022-09-11T07:18:04.521Z,168.00
2022-09-11T07:19:04.476Z,216.00
2022-09-11T07:20:04.480Z,252.00
2022-09-11T07:21:04.450Z,292.00
2022-09-11T07:22:04.493Z,268.00
2022-09-11T07:23:04.452Z,340.00
2022-09-11T07:24:04.419Z,324.00
2022-09-11T07:25:07.575Z,256.00
2022-09-11T07:26:04.399Z,264.00
2022-09-11T07:27:04.419Z,308.00
2022-09-11T07:28:04.394Z,300.00
2022-09-11T07:29:04.392Z,424.00
2022-09-11T07:30:04.351Z,408.00
2022-09-11T07:31:04.438Z,320.00
2022-09-11T07:32:04.369Z,380.00
2022-09-11T07:33:04.320Z,400.00
2022-09-11T07:34:04.330Z,412.00
2022-09-11T07:35:04.342Z,448.00
2022-09-11T07:36:04.285Z,412.00
2022-09-11T07:37:04.280Z,308.00
2022-09-11T07:38:04.291Z,268.00
2022-09-11T07:39:04.264Z,324.00
2022-09-11T07:40:04.305Z,412.00
2022-09-11T07:41:04.282Z,476.00
2022-09-11T07:42:04.220Z,580.00
2022-09-11T07:43:04.224Z,596.00
2022-09-11T07:44:04.224Z,656.00
2022-09-11T07:45:04.201Z,748.00
2022-09-11T07:46:04.235Z,776.00
2022-09-11T07:47:04.169Z,756.00
2022-09-11T07:48:04.170Z,804.00
2022-09-11T07:49:04.141Z,840.00
2022-09-11T07:50:04.157Z,764.00
2022-09-11T07:51:04.141Z,584.00
2022-09-11T07:52:04.150Z,380.00
2022-09-11T07:53:04.153Z,320.00
2022-09-11T07:54:04.107Z,380.00
2022-09-11T07:55:04.159Z,360.00
2022-09-11T07:56:04.071Z,284.00
2022-09-11T07:57:04.079Z,372.00
2022-09-11T07:58:04.073Z,460.00
2022-09-11T07:59:04.042Z,640.00
2022-09-11T08:00:04.027Z,788.00
2022-09-11T08:01:04.122Z,1020.00
2022-09-11T08:02:04.078Z,1016.00
2022-09-11T08:03:04.010Z,1124.00
2022-09-11T08:04:04.039Z,1088.00
2022-09-11T08:05:03.961Z,940.00
2022-09-11T08:06:03.977Z,788.00
2022-09-11T08:07:03.972Z,740.00
2022-09-11T08:08:03.945Z,824.00
2022-09-11T08:09:03.950Z,728.00
2022-09-11T08:10:26.217Z,880.00
2022-09-11T08:11:04.928Z,936.00
2022-09-11T08:12:03.895Z,956.00
2022-09-11T08:13:05.937Z,1116.00
2022-09-11T08:14:04.914Z,1032.00
2022-09-11T08:15:03.851Z,968.00
2022-09-11T08:16:03.837Z,924.00
2022-09-11T08:17:03.841Z,1104.00
2022-09-11T08:18:03.857Z,1164.00
2022-09-11T08:19:03.855Z,1076.00
2022-09-11T08:20:03.841Z,1152.00
2022-09-11T08:21:03.785Z,1016.00
2022-09-11T08:22:03.772Z,936.00
2022-09-11T08:23:03.836Z,928.00
2022-09-11T08:24:03.788Z,808.00
2022-09-11T08:25:03.762Z,700.00
2022-09-11T08:26:03.764Z,752.00
2022-09-11T08:27:03.763Z,856.00
2022-09-11T08:28:03.713Z,896.00
2022-09-11T08:29:03.697Z,756.00
2022-09-11T08:30:03.696Z,1004.00
2022-09-11T08:31:03.751Z,1036.00
2022-09-11T08:32:03.706Z,780.00
2022-09-11T08:33:03.647Z,772.00
2022-09-11T08:34:03.646Z,768.00
2022-09-11T08:35:03.674Z,768.00
2022-09-11T08:36:03.642Z,568.00
2022-09-11T08:37:03.629Z,512.00
2022-09-11T08:38:03.742Z,560.00
2022-09-11T08:39:03.608Z,564.00
2022-09-11T08:40:03.647Z,616.00
2022-09-11T08:41:03.570Z,908.00
2022-09-11T08:42:03.593Z,844.00
2022-09-11T08:43:03.588Z,764.00
2022-09-11T08:44:03.528Z,692.00
2022-09-11T08:45:03.522Z,716.00
2022-09-11T08:46:03.571Z,644.00
2022-09-11T08:47:03.518Z,644.00
2022-09-11T08:48:03.499Z,652.00
2022-09-11T08:49:03.504Z,676.00
2022-09-11T08:50:03.466Z,784.00
2022-09-11T08:51:03.461Z,1052.00
2022-09-11T08:52:03.547Z,996.00
2022-09-11T08:53:03.430Z,804.00
2022-09-11T08:54:03.434Z,968.00
2022-09-11T08:55:03.404Z,868.00
2022-09-11T08:56:03.406Z,892.00
2022-09-11T08:57:03.384Z,940.00
2022-09-11T08:58:03.410Z,708.00
2022-09-11T08:59:03.377Z,960.00
2022-09-11T09:00:03.376Z,844.00
2022-09-11T09:01:03.458Z,940.00
2022-09-11T09:02:03.391Z,700.00
2022-09-11T09:03:03.348Z,520.00
2022-09-11T09:04:03.348Z,696.00
2022-09-11T09:05:03.319Z,664.00
2022-09-11T09:06:03.307Z,756.00
2022-09-11T09:07:03.276Z,756.00
2022-09-11T09:08:03.271Z,716.00
2022-09-11T09:09:03.264Z,684.00
2022-09-11T09:10:03.252Z,832.00
2022-09-11T09:11:03.253Z,764.00
2022-09-11T09:12:03.261Z,744.00
2022-09-11T09:13:03.202Z,884.00
2022-09-11T09:14:03.200Z,572.00
2022-09-11T09:15:03.222Z,704.00
2022-09-11T09:16:03.217Z,524.00
2022-09-11T09:17:03.190Z,596.00
2022-09-11T09:18:03.142Z,408.00
2022-09-11T09:19:03.150Z,636.00
2022-09-11T09:20:03.159Z,1068.00
2022-09-11T09:21:03.142Z,1164.00
2022-09-11T09:22:03.129Z,1452.00
2022-09-11T09:23:03.126Z,1536.00
2022-09-11T09:24:03.091Z,1616.00
2022-09-11T09:25:03.092Z,1568.00
2022-09-11T09:26:03.154Z,1540.00
2022-09-11T09:27:03.137Z,1584.00
2022-09-11T09:28:03.074Z,1492.00
2022-09-11T09:29:03.020Z,1196.00
2022-09-11T09:30:03.009Z,1068.00
2022-09-11T09:31:03.085Z,1140.00
2022-09-11T09:32:03.002Z,980.00
2022-09-11T09:33:02.981Z,1128.00
2022-09-11T09:34:02.985Z,1168.00
2022-09-11T09:35:02.957Z,1440.00
2022-09-11T09:36:02.952Z,1240.00
2022-09-11T09:37:02.930Z,1360.00
2022-09-11T09:38:02.967Z,1712.00
2022-09-11T09:39:02.935Z,1216.00
2022-09-11T09:40:02.978Z,1556.00
2022-09-11T09:41:02.939Z,1148.00
2022-09-11T09:42:02.872Z,800.00
2022-09-11T09:43:02.903Z,976.00
2022-09-11T09:44:02.867Z,896.00
2022-09-11T09:45:02.863Z,700.00
2022-09-11T09:46:02.873Z,796.00
2022-09-11T09:47:02.825Z,740.00
2022-09-11T09:48:02.808Z,624.00
2022-09-11T09:49:02.838Z,500.00
2022-09-11T09:50:02.817Z,932.00
2022-09-11T09:51:02.805Z,1028.00
2022-09-11T09:52:04.542Z,1096.00
2022-09-11T09:53:02.750Z,844.00
2022-09-11T09:54:02.764Z,1020.00
2022-09-11T09:55:02.738Z,840.00
2022-09-11T09:56:02.764Z,708.00
2022-09-11T09:57:02.751Z,780.00
2022-09-11T09:58:02.697Z,596.00
2022-09-11T09:59:02.713Z,772.00
2022-09-11T10:00:02.677Z,592.00
2022-09-11T10:01:02.715Z,724.00
2022-09-11T10:02:02.790Z,632.00
2022-09-11T10:03:02.636Z,732.00
2022-09-11T10:04:02.638Z,1120.00
2022-09-11T10:05:02.615Z,1164.00
2022-09-11T10:06:02.619Z,880.00
2022-09-11T10:07:02.618Z,596.00
2022-09-11T10:08:02.626Z,504.00
2022-09-11T10:09:03.573Z,436.00
2022-09-11T10:10:02.582Z,428.00
2022-09-11T10:11:02.564Z,456.00
2022-09-11T10:12:02.572Z,644.00
2022-09-11T10:13:18.646Z,804.00
2022-09-11T10:14:03.525Z,816.00
2022-09-11T10:15:02.516Z,496.00
2022-09-11T10:16:02.556Z,484.00
2022-09-11T10:17:02.491Z,452.00
2022-09-11T10:18:02.491Z,408.00
2022-09-11T10:19:02.497Z,544.00
2022-09-11T10:20:02.445Z,544.00
2022-09-11T10:21:05.859Z,528.00
2022-09-11T10:22:03.437Z,612.00
2022-09-11T10:23:02.431Z,848.00
2022-09-11T10:24:02.450Z,996.00
2022-09-11T10:25:02.432Z,1000.00
2022-09-11T10:26:02.378Z,1084.00
2022-09-11T10:27:02.383Z,1380.00
2022-09-11T10:28:02.376Z,1264.00
2022-09-11T10:29:02.362Z,1112.00
2022-09-11T10:30:02.367Z,1360.00
2022-09-11T10:31:02.457Z,1024.00
2022-09-11T10:32:02.319Z,1016.00
2022-09-11T10:33:03.678Z,1080.00
2022-09-11T10:34:02.296Z,1208.00
2022-09-11T10:35:02.292Z,1048.00
2022-09-11T10:36:02.302Z,1168.00
2022-09-11T10:37:02.252Z,1264.00
2022-09-11T10:38:02.256Z,1340.00
2022-09-11T10:39:02.230Z,1348.00
2022-09-11T10:40:02.274Z,1568.00
2022-09-11T10:41:02.241Z,1456.00
2022-09-11T10:42:02.244Z,1624.00
2022-09-11T10:43:02.189Z,1508.00
2022-09-11T10:44:02.203Z,1688.00
2022-09-11T10:45:02.170Z,1776.00
2022-09-11T10:46:02.249Z,1600.00
2022-09-11T10:47:02.174Z,1768.00
2022-09-11T10:48:02.180Z,1712.00
2022-09-11T10:49:02.138Z,1540.00
2022-09-11T10:50:02.107Z,1316.00
2022-09-11T10:51:02.100Z,1468.00
2022-09-11T10:52:02.111Z,1712.00
2022-09-11T10:53:02.159Z,1604.00
2022-09-11T10:54:02.059Z,1372.00
2022-09-11T10:55:02.068Z,1072.00
2022-09-11T10:56:02.039Z,1372.00
2022-09-11T10:57:02.079Z,1336.00
2022-09-11T10:58:02.037Z,1352.00
2022-09-11T10:59:02.054Z,1460.00
2022-09-11T11:00:02.025Z,1548.00
2022-09-11T11:01:02.046Z,1564.00
2022-09-11T11:02:01.990Z,1708.00
2022-09-11T11:03:02.017Z,1564.00
2022-09-11T11:04:01.985Z,1836.00
2022-09-11T11:05:01.989Z,1796.00
2022-09-11T11:06:01.940Z,1600.00
2022-09-11T11:07:01.923Z,1636.00
2022-09-11T11:08:01.908Z,1788.00
2022-09-11T11:09:01.920Z,1444.00
2022-09-11T11:10:01.922Z,1868.00
2022-09-11T11:11:01.930Z,1720.00
2022-09-11T11:12:01.874Z,1668.00
2022-09-11T11:13:01.869Z,1532.00
2022-09-11T11:14:01.851Z,1540.00
2022-09-11T11:15:01.856Z,1384.00
2022-09-11T11:16:01.945Z,1072.00
2022-09-11T11:17:01.812Z,1220.00
2022-09-11T11:18:01.792Z,1200.00
2022-09-11T11:19:01.820Z,900.00
2022-09-11T11:20:01.788Z,956.00
2022-09-11T11:21:01.797Z,868.00
2022-09-11T11:22:01.808Z,1208.00
2022-09-11T11:23:01.752Z,1252.00
2022-09-11T11:24:01.757Z,1100.00
2022-09-11T11:25:01.727Z,1280.00
2022-09-11T11:26:01.728Z,1116.00
2022-09-11T11:27:01.729Z,1188.00
2022-09-11T11:28:01.740Z,1348.00
2022-09-11T11:29:01.672Z,1376.00
2022-09-11T11:30:01.695Z,1364.00
2022-09-11T11:31:01.712Z,1408.00
2022-09-11T11:32:01.693Z,1468.00
2022-09-11T11:33:01.687Z,1896.00
2022-09-11T11:34:01.621Z,1968.00
2022-09-11T11:35:01.613Z,2036.00
2022-09-11T11:36:01.595Z,2064.00
2022-09-11T11:37:01.639Z,1772.00
2022-09-11T11:38:01.604Z,1396.00
2022-09-11T11:39:01.628Z,1324.00
2022-09-11T11:40:01.607Z,1288.00
2022-09-11T11:41:01.535Z,1260.00
2022-09-11T11:42:01.570Z,1244.00
2022-09-11T11:43:01.546Z,1212.00
2022-09-11T11:44:01.543Z,1176.00
2022-09-11T11:45:01.491Z,1020.00
2022-09-11T11:46:01.585Z,948.00
2022-09-11T11:47:01.474Z,808.00
2022-09-11T11:48:01.491Z,740.00
2022-09-11T11:49:01.482Z,872.00
2022-09-11T11:50:01.481Z,1032.00
2022-09-11T11:51:01.429Z,1148.00
2022-09-11T11:52:01.426Z,1196.00
2022-09-11T11:53:01.444Z,1176.00
2022-09-11T11:54:01.407Z,1272.00
2022-09-11T11:55:01.442Z,1248.00
2022-09-11T11:56:01.370Z,1308.00
2022-09-11T11:57:01.368Z,1608.00
2022-09-11T11:58:01.344Z,1584.00
2022-09-11T11:59:01.368Z,1544.00
2022-09-11T12:00:01.348Z,1524.00
2022-09-11T12:01:01.374Z,1580.00
2022-09-11T12:02:01.358Z,1660.00
2022-09-11T12:03:01.304Z,1716.00
2022-09-11T12:04:01.298Z,1764.00
2022-09-11T12:05:01.277Z,1784.00
2022-09-11T12:06:01.284Z,1780.00
2022-09-11T12:07:01.314Z,1772.00
2022-09-11T12:08:01.238Z,1648.00
2022-09-11T12:09:01.222Z,1880.00
2022-09-11T12:10:01.261Z,1724.00
2022-09-11T12:11:01.218Z,1468.00
2022-09-11T12:12:01.227Z,1240.00
2022-09-11T12:13:01.178Z,904.00
2022-09-11T12:14:01.176Z,1048.00
2022-09-11T12:15:01.233Z,1064.00
2022-09-11T12:16:01.241Z,1172.00
2022-09-11T12:17:01.165Z,1244.00
2022-09-11T12:18:01.157Z,1248.00
2022-09-11T12:19:01.112Z,1248.00
2022-09-11T12:20:01.134Z,1344.00
2022-09-11T12:21:01.104Z,1420.00
2022-09-11T12:22:01.129Z,1508.00
2022-09-11T12:23:01.144Z,1620.00
2022-09-11T12:24:01.061Z,1620.00
2022-09-11T12:25:01.049Z,1700.00
2022-09-11T12:26:01.055Z,1768.00
2022-09-11T12:27:01.471Z,1772.00
2022-09-11T12:28:01.027Z,1768.00
2022-09-11T12:29:01.037Z,1744.00
2022-09-11T12:30:01.043Z,1828.00
2022-09-11T12:31:01.026Z,1644.00
2022-09-11T12:32:00.969Z,1908.00
2022-09-11T12:33:00.963Z,1856.00
2022-09-11T12:34:00.970Z,1776.00
2022-09-11T12:35:00.975Z,1776.00
2022-09-11T12:36:00.938Z,1800.00
2022-09-11T12:37:00.996Z,1668.00
2022-09-11T12:38:00.899Z,1620.00
2022-09-11T12:39:00.939Z,1728.00
2022-09-11T12:40:00.936Z,1436.00
2022-09-11T12:41:00.904Z,1348.00
2022-09-11T12:42:00.908Z,1484.00
2022-09-11T12:43:00.842Z,1520.00